Time;durP1;ratioP1;P1;durP2;ratioP2;P2;SDS_P1;SDS_P2;PMS_P1;PMS_P2;Temp;Humidity;BMP_temperature;BMP_pressure;BME280_temperature;BME280_humidity;BME280_pressure;Samples;Min_cycle;Max_cycle;Signal;HPM_P1;HPM_P2
2022/10/25 00:01:34;;;;;;;18.60;13.45;;;;;;;12.14;100.00;99457.34;4938395;29;20589;-93
2022/10/25 00:04:00;;;;;;;17.95;13.73;;;;;;;12.03;100.00;99451.03;4938606;29;20406;-92
2022/10/25 00:06:26;;;;;;;17.90;13.55;;;;;;;12.00;100.00;99457.25;4918442;29;20131;-92
2022/10/25 00:08:51;;;;;;;18.75;14.02;;;;;;;11.91;100.00;99450.78;4938534;29;20038;-93
2022/10/25 00:11:23;;;;;;;16.27;12.98;;;;;;;11.87;100.00;99448.41;4938448;29;20043;-92
2022/10/25 00:13:50;;;;;;;16.35;12.43;;;;;;;11.88;100.00;99457.91;4954165;29;20030;-92
2022/10/25 00:16:19;;;;;;;16.92;10.90;;;;;;;11.85;100.00;99465.94;4954538;29;20129;-93
2022/10/25 00:18:44;;;;;;;13.63;10.73;;;;;;;11.83;100.00;99466.00;4954281;29;20046;-93
2022/10/25 00:21:10;;;;;;;14.23;9.73;;;;;;;11.80;100.00;99454.84;4938004;29;20043;-92
2022/10/25 00:23:35;;;;;;;17.45;11.95;;;;;;;11.72;100.00;99452.69;4954437;29;20027;-93
2022/10/25 00:26:02;;;;;;;18.20;13.02;;;;;;;11.71;100.00;99458.81;4953975;29;20039;-92
2022/10/25 00:28:27;;;;;;;20.13;16.30;;;;;;;11.71;100.00;99461.41;4954229;29;20035;-91
2022/10/25 00:31:05;;;;;;;19.50;13.10;;;;;;;11.66;100.00;99464.28;4954044;29;20031;-94
2022/10/25 00:33:31;;;;;;;15.60;12.10;;;;;;;11.55;100.00;99458.81;4938194;29;20475;-94
2022/10/25 00:36:11;;;;;;;16.42;11.13;;;;;;;11.57;100.00;99469.16;4953855;29;20491;-93
2022/10/25 00:38:37;;;;;;;16.60;11.10;;;;;;;11.51;100.00;99465.13;4977475;28;20092;-93
2022/10/25 00:41:04;;;;;;;11.63;10.25;;;;;;;11.46;100.00;99469.72;4993838;28;20458;-94
2022/10/25 00:43:46;;;;;;;13.77;8.75;;;;;;;11.47;100.00;99464.44;4977628;28;20052;-94
2022/10/25 00:46:22;;;;;;;10.05;8.27;;;;;;;11.40;100.00;99454.41;4993857;28;20394;-94
2022/10/25 00:48:53;;;;;;;9.73;7.57;;;;;;;11.46;100.00;99465.38;4977548;28;20098;-94
2022/10/25 00:51:21;;;;;;;11.10;8.07;;;;;;;11.45;100.00;99460.22;4977359;28;20042;-94
2022/10/25 00:53:46;;;;;;;13.57;8.63;;;;;;;11.44;100.00;99461.16;4977583;28;20037;-94
2022/10/25 00:56:18;;;;;;;14.43;9.35;;;;;;;11.42;100.00;99453.41;4977570;28;20030;-95
2022/10/25 00:58:52;;;;;;;15.45;9.00;;;;;;;11.35;100.00;99452.03;4977361;28;20425;-94
2022/10/25 01:01:17;;;;;;;13.13;8.65;;;;;;;11.34;100.00;99450.38;4977342;28;20030;-94
2022/10/25 01:03:47;;;;;;;12.27;8.55;;;;;;;11.36;100.00;99458.09;4977516;28;20030;-94
2022/10/25 01:06:19;;;;;;;12.27;8.32;;;;;;;11.08;100.00;99422.19;4977106;28;20026;-94
2022/10/25 01:08:47;;;;;;;11.57;8.07;;;;;;;11.28;100.00;99458.50;4977494;28;20034;-94
2022/10/25 01:11:12;;;;;;;10.63;8.40;;;;;;;11.20;100.00;99448.47;4976889;28;20038;-94
2022/10/25 01:13:38;;;;;;;10.70;8.35;;;;;;;11.26;100.00;99456.91;4976722;28;20033;-93
2022/10/25 01:16:10;;;;;;;11.48;8.13;;;;;;;11.23;100.00;99452.69;4976676;28;20049;-93
2022/10/25 01:18:45;;;;;;;11.77;8.18;;;;;;;11.17;100.00;99448.66;4977173;28;20050;-94
2022/10/25 01:21:28;;;;;;;12.57;7.93;;;;;;;11.13;100.00;99444.50;4976571;28;20034;-94
2022/10/25 01:24:31;;;;;;;9.43;7.88;;;;;;;11.09;100.00;99445.59;4977002;28;20034;-93
2022/10/25 01:27:41;;;;;;;10.85;8.25;;;;;;;11.03;100.00;99443.28;4976684;28;20125;-93
2022/10/25 01:30:35;;;;;;;11.75;8.45;;;;;;;10.99;100.00;99446.97;4976662;28;20065;-94
2022/10/25 01:33:06;;;;;;;11.98;8.90;;;;;;;10.91;100.00;99443.91;4974449;28;20022;-94
2022/10/25 01:35:44;;;;;;;11.18;8.05;;;;;;;10.91;100.00;99452.59;4977086;28;20033;-93
2022/10/25 01:38:12;;;;;;;9.00;7.32;;;;;;;10.86;100.00;99438.94;4993909;28;20413;-94
2022/10/25 01:40:49;;;;;;;11.13;7.97;;;;;;;10.90;100.00;99437.03;4975770;28;20101;-93
2022/10/25 01:43:30;;;;;;;11.65;8.27;;;;;;;10.77;100.00;99426.41;4991415;28;20127;-93
2022/10/25 01:46:06;;;;;;;9.82;7.97;;;;;;;10.88;100.00;99449.31;4975316;28;20125;-94
2022/10/25 01:48:38;;;;;;;9.60;8.40;;;;;;;10.86;100.00;99446.75;4975882;28;20042;-94
2022/10/25 01:51:09;;;;;;;10.27;7.72;;;;;;;10.82;100.00;99449.59;4951804;29;20188;-94
2022/10/25 01:53:42;;;;;;;;;;;;;;;10.83;100.00;99454.75;4936687;29;20086;-94
2022/10/25 01:56:08;;;;;;;12.70;8.85;;;;;;;10.80;100.00;99467.09;4952117;29;19914;-94
2022/10/25 01:58:45;;;;;;;10.60;8.50;;;;;;;10.72;100.00;99451.84;4936280;29;20082;-94
2022/10/25 02:01:30;;;;;;;10.50;9.05;;;;;;;10.76;100.00;99455.97;4935853;29;20031;-94
2022/10/25 02:04:17;;;;;;;16.05;9.32;;;;;;;10.72;100.00;99457.06;4936641;29;20035;-94
2022/10/25 02:06:58;;;;;;;9.80;8.75;;;;;;;10.69;100.00;99452.81;4952896;29;20077;-94
2022/10/25 02:09:29;;;;;;;13.02;9.00;;;;;;;10.65;100.00;99453.06;4937070;29;20186;-93
2022/10/25 02:11:58;;;;;;;10.85;8.48;;;;;;;10.60;100.00;99457.66;4936631;29;20057;-94
2022/10/25 02:14:36;;;;;;;16.20;11.60;;;;;;;10.64;100.00;99465.25;4936653;29;20035;-94
2022/10/25 02:17:11;;;;;;;14.90;10.57;;;;;;;10.62;100.00;99464.50;4936266;29;20095;-94
2022/10/25 02:19:40;;;;;;;17.10;11.15;;;;;;;10.52;100.00;99451.97;4936503;29;20027;-93
2022/10/25 02:22:11;;;;;;;13.05;10.23;;;;;;;10.63;100.00;99460.97;4965901;28;20038;-93
2022/10/25 02:24:39;;;;;;;14.85;10.38;;;;;;;10.63;100.00;99454.91;4976043;28;20033;-94
2022/10/25 02:27:06;;;;;;;12.35;10.15;;;;;;;10.58;100.00;99454.31;4975993;28;20466;-94
2022/10/25 02:29:33;;;;;;;11.38;9.77;;;;;;;10.62;100.00;99458.41;4976267;28;20033;-94
2022/10/25 02:31:58;;;;;;;12.93;9.65;;;;;;;10.63;100.00;99457.50;4975568;28;20053;-92
2022/10/25 02:34:24;;;;;;;10.80;8.93;;;;;;;10.53;100.00;99444.09;4975584;28;20462;-94
2022/10/25 02:36:52;;;;;;;12.82;9.75;;;;;;;10.54;100.00;99448.41;4992058;28;20024;-93
2022/10/25 02:39:19;;;;;;;13.07;9.90;;;;;;;10.59;100.00;99458.59;4991511;28;20527;-94
2022/10/25 02:41:44;;;;;;;12.15;10.18;;;;;;;10.57;100.00;99450.81;4991927;28;20104;-94
2022/10/25 02:44:09;;;;;;;16.42;10.38;;;;;;;10.55;100.00;99457.88;4975723;28;20461;-93
2022/10/25 02:46:35;;;;;;;11.77;9.27;;;;;;;10.51;100.00;99455.50;4976094;28;20030;-94
2022/10/25 02:49:00;;;;;;;14.57;9.98;;;;;;;10.51;100.00;99458.13;4975810;28;20073;-93
2022/10/25 02:51:26;;;;;;;11.35;9.20;;;;;;;10.52;100.00;99450.22;4975704;28;20609;-93
2022/10/25 02:53:51;;;;;;;10.93;8.77;;;;;;;10.57;100.00;99456.03;4991745;28;20026;-94
2022/10/25 02:56:19;;;;;;;11.57;9.23;;;;;;;10.55;100.00;99462.25;4991656;28;20034;-94
2022/10/25 02:58:46;;;;;;;12.00;9.98;;;;;;;10.51;100.00;99456.34;4971055;28;20113;-94
2022/10/25 03:01:13;;;;;;;11.45;9.45;;;;;;;10.53;100.00;99469.28;4897857;29;20130;-93
2022/10/25 03:03:38;;;;;;;12.48;9.75;;;;;;;10.45;100.00;99465.31;4898135;29;20043;-93
2022/10/25 03:06:04;;;;;;;15.23;9.75;;;;;;;10.50;100.00;99470.31;4913526;29;20044;-93
2022/10/25 03:08:30;;;;;;;13.50;9.18;;;;;;;10.48;100.00;99461.72;4913389;29;20080;-93
2022/10/25 03:10:56;;;;;;;14.15;9.30;;;;;;;10.53;100.00;99469.28;4898002;29;20391;-94
2022/10/25 03:13:21;;;;;;;13.77;9.20;;;;;;;10.55;100.00;99468.31;4897746;29;20040;-94
2022/10/25 03:15:47;;;;;;;11.65;8.48;;;;;;;10.48;100.00;99459.94;4913696;29;20046;-94
2022/10/25 03:18:13;;;;;;;10.70;8.82;;;;;;;10.54;100.00;99476.22;4897777;29;20048;-94
2022/10/25 03:20:40;;;;;;;12.80;8.63;;;;;;;10.51;100.00;99481.56;4898047;29;20044;-94
2022/10/25 03:23:05;;;;;;;12.70;9.30;;;;;;;10.51;100.00;99479.78;4898065;29;20028;-94
2022/10/25 03:25:31;;;;;;;11.95;8.68;;;;;;;10.51;100.00;99476.34;4897859;29;20526;-94
2022/10/25 03:27:59;;;;;;;12.77;9.10;;;;;;;10.45;100.00;99464.47;4897956;29;20032;-94
2022/10/25 03:30:25;;;;;;;10.18;8.95;;;;;;;10.50;100.00;99483.31;4912371;29;20046;-95
2022/10/25 03:32:50;;;;;;;15.38;9.13;;;;;;;10.48;100.00;99469.53;4961536;28;20035;-94
2022/10/25 03:35:16;;;;;;;10.02;8.98;;;;;;;10.49;100.00;99473.81;4991397;28;20037;-94
2022/10/25 03:37:41;;;;;;;12.90;9.30;;;;;;;10.48;100.00;99466.91;4978670;28;20023;-93
2022/10/25 03:40:07;;;;;;;12.88;9.60;;;;;;;10.38;100.00;99453.50;4979058;28;20030;-94
2022/10/25 03:42:32;;;;;;;13.48;9.23;;;;;;;10.39;100.00;99452.59;4978907;28;20026;-94
2022/10/25 03:44:58;;;;;;;14.35;9.55;;;;;;;10.44;100.00;99463.63;4994980;28;20036;-93
2022/10/25 03:47:23;;;;;;;11.98;10.18;;;;;;;10.42;100.00;99457.66;4995022;28;20029;-94
2022/10/25 03:49:48;;;;;;;11.20;9.82;;;;;;;10.38;100.00;99456.13;4978225;28;20054;-93
2022/10/25 03:52:14;;;;;;;12.85;10.60;;;;;;;10.35;100.00;99465.81;4978458;28;20027;-94
2022/10/25 03:54:41;;;;;;;11.50;9.80;;;;;;;10.29;100.00;99473.94;4978706;28;20038;-92
2022/10/25 03:57:06;;;;;;;14.98;10.00;;;;;;;10.20;100.00;99465.63;4978391;28;20385;-93
2022/10/25 03:59:32;;;;;;;11.63;10.02;;;;;;;10.20;100.00;99465.63;4978434;28;20026;-93
2022/10/25 04:01:57;;;;;;;13.18;10.30;;;;;;;10.24;100.00;99472.41;4978323;28;20026;-93
2022/10/25 04:04:22;;;;;;;11.88;9.50;;;;;;;10.26;100.00;99474.09;4978262;28;20769;-94
2022/10/25 04:06:48;;;;;;;14.27;9.88;;;;;;;10.22;100.00;99469.00;4978641;28;20180;-94
2022/10/25 04:09:14;;;;;;;10.68;9.00;;;;;;;10.21;100.00;99477.72;4994242;28;20033;-93
2022/10/25 04:11:39;;;;;;;11.38;9.18;;;;;;;10.18;100.00;99475.25;4978291;28;20466;-94
2022/10/25 04:14:04;;;;;;;11.57;8.90;;;;;;;10.15;100.00;99474.56;4994076;28;20057;-94
2022/10/25 04:16:30;;;;;;;11.45;9.50;;;;;;;10.13;100.00;99477.25;4994516;28;20032;-93
2022/10/25 04:18:57;;;;;;;12.73;9.10;;;;;;;10.12;100.00;99469.53;4994169;28;20030;-93
2022/10/25 04:21:23;;;;;;;9.95;8.98;;;;;;;10.10;100.00;99474.78;4977874;28;20106;-94
2022/10/25 04:23:49;;;;;;;11.38;10.18;;;;;;;10.07;100.00;99482.75;4993948;28;20077;-94
2022/10/25 04:26:18;;;;;;;13.95;9.55;;;;;;;9.93;100.00;99457.34;4977697;28;20030;-93
2022/10/25 04:28:50;;;;;;;12.93;9.43;;;;;;;9.89;100.00;99458.41;4978013;28;20022;-93
2022/10/25 04:31:15;;;;;;;10.43;8.77;;;;;;;10.00;100.00;99479.59;4977666;28;20045;-94
2022/10/25 04:33:41;;;;;;;11.82;9.57;;;;;;;9.98;100.00;99477.94;4978107;28;20413;-93
2022/10/25 04:36:06;;;;;;;14.52;10.32;;;;;;;10.00;100.00;99474.38;4978003;28;20026;-94
2022/10/25 04:38:32;;;;;;;13.13;10.15;;;;;;;10.07;100.00;99474.94;4978006;28;20089;-94
2022/10/25 04:40:59;;;;;;;15.20;11.35;;;;;;;10.09;100.00;99478.31;4977993;28;20468;-93
2022/10/25 04:43:26;;;;;;;16.33;12.25;;;;;;;10.13;100.00;99484.22;4977826;28;20418;-94
2022/10/25 04:45:53;;;;;;;14.13;10.70;;;;;;;10.12;100.00;99485.97;4977630;28;20530;-93
2022/10/25 04:48:19;;;;;;;17.52;11.48;;;;;;;10.14;100.00;99480.69;4976372;28;20030;-93
2022/10/25 04:50:45;;;;;;;12.95;10.45;;;;;;;10.15;100.00;99477.16;4977606;28;20046;-95
2022/10/25 04:53:10;;;;;;;18.45;12.20;;;;;;;10.14;100.00;99478.09;4953747;29;20038;-94
2022/10/25 04:55:36;;;;;;;13.95;10.50;;;;;;;10.17;100.00;99473.56;4937829;29;20474;-94
2022/10/25 04:58:02;;;;;;;16.23;10.60;;;;;;;10.17;100.00;99473.56;4937739;29;20027;-93
2022/10/25 05:00:28;;;;;;;14.80;10.35;;;;;;;10.18;100.00;99479.63;4938013;29;20039;-94
2022/10/25 05:02:54;;;;;;;13.57;10.15;;;;;;;10.14;100.00;99475.47;4937894;29;20039;-93
2022/10/25 05:05:22;;;;;;;11.23;9.52;;;;;;;10.10;100.00;99472.19;4936984;29;20031;-93
2022/10/25 05:07:47;;;;;;;12.18;9.50;;;;;;;10.04;100.00;99475.09;4937231;29;20079;-93
2022/10/25 05:10:13;;;;;;;14.00;10.45;;;;;;;10.02;100.00;99470.84;4936914;29;20032;-93
2022/10/25 05:12:38;;;;;;;12.50;9.82;;;;;;;10.03;100.00;99490.75;4936770;29;20399;-92
2022/10/25 05:15:05;;;;;;;15.00;10.50;;;;;;;9.97;100.00;99487.53;4936840;29;20053;-93
2022/10/25 05:17:31;;;;;;;13.02;11.05;;;;;;;9.93;100.00;99488.56;4936509;29;20054;-93
2022/10/25 05:19:56;;;;;;;14.40;12.13;;;;;;;9.89;100.00;99488.78;4936746;29;20556;-92
2022/10/25 05:22:22;;;;;;;18.27;14.18;;;;;;;9.86;100.00;99488.94;4914173;29;20603;-92
2022/10/25 05:24:47;;;;;;;26.17;17.02;;;;;;;9.83;100.00;99494.28;4943347;29;20049;-92
2022/10/25 05:27:12;;;;;;;25.05;17.02;;;;;;;9.80;100.00;99495.25;4952324;29;20046;-92
2022/10/25 05:29:38;;;;;;;28.30;18.10;;;;;;;9.79;100.00;99501.38;4952450;29;20030;-92
2022/10/25 05:32:03;;;;;;;31.33;20.25;;;;;;;9.78;100.00;99507.50;4952435;29;20074;-92
2022/10/25 05:34:29;;;;;;;28.52;18.17;;;;;;;9.78;100.00;99504.06;4952152;29;20171;-93
2022/10/25 05:36:54;;;;;;;26.63;17.40;;;;;;;9.72;100.00;99498.22;4952383;29;20557;-90
2022/10/25 05:39:20;;;;;;;24.25;15.57;;;;;;;9.74;100.00;99501.59;4951659;29;20541;-89
2022/10/25 05:41:45;;;;;;;27.05;17.33;;;;;;;9.80;100.00;99507.44;4935951;29;20031;-90
2022/10/25 05:44:11;;;;;;;24.88;17.92;;;;;;;9.80;100.00;99507.44;4951792;29;20375;-90
2022/10/25 05:46:36;;;;;;;27.58;16.92;;;;;;;9.82;100.00;99506.47;4951976;29;20117;-90
2022/10/25 05:49:02;;;;;;;25.42;17.08;;;;;;;9.84;100.00;99512.41;4951642;29;20138;-91
2022/10/25 05:51:30;;;;;;;19.92;15.88;;;;;;;9.81;100.00;99512.56;4951666;29;20198;-90
2022/10/25 05:53:57;;;;;;;22.42;14.88;;;;;;;9.83;100.00;99515.94;4970090;28;20125;-90
2022/10/25 05:56:26;;;;;;;24.73;15.13;;;;;;;9.85;100.00;99521.06;4975403;28;20054;-90
2022/10/25 05:58:52;;;;;;;23.50;15.57;;;;;;;9.90;100.00;99519.09;4951186;28;20042;-90
2022/10/25 06:01:19;;;;;;;27.30;14.95;;;;;;;9.84;100.00;99514.19;4951342;29;20034;-90
2022/10/25 06:03:52;;;;;;;23.08;13.95;;;;;;;9.95;100.00;99527.56;4951554;29;20043;-90
2022/10/25 06:06:18;;;;;;;18.52;13.10;;;;;;;10.00;100.00;99526.41;4935424;29;20063;-90
2022/10/25 06:08:44;;;;;;;18.63;13.30;;;;;;;10.03;100.00;99514.16;4935470;29;20082;-90
2022/10/25 06:11:13;;;;;;;32.30;14.45;;;;;;;10.28;100.00;99542.53;4935424;29;20031;-90
2022/10/25 06:13:39;;;;;;;23.90;13.90;;;;;;;10.27;100.00;99522.63;4935545;29;20040;-89
2022/10/25 06:16:06;;;;;;;19.27;13.88;;;;;;;10.49;100.00;99538.91;4951616;29;20043;-90
2022/10/25 06:18:33;;;;;;;21.05;15.10;;;;;;;10.54;100.00;99543.91;4951133;29;20417;-90
2022/10/25 06:21:03;;;;;;;21.17;15.48;;;;;;;10.45;100.00;99543.44;4935446;29;20099;-90
2022/10/25 06:23:30;;;;;;;19.98;14.02;;;;;;;10.43;100.00;99539.19;4951224;29;20039;-90
2022/10/25 06:26:00;;;;;;;20.20;14.25;;;;;;;10.47;100.00;99546.78;4951405;29;20070;-90
2022/10/25 06:28:25;;;;;;;21.20;14.33;;;;;;;10.73;100.00;99558.56;4951196;29;20126;-90
2022/10/25 06:30:51;;;;;;;15.90;12.43;;;;;;;11.23;100.00;99555.19;4951355;29;20043;-89
2022/10/25 06:33:16;;;;;;;18.52;11.18;;;;;;;12.11;100.00;99561.94;4935046;29;20054;-90
2022/10/25 06:35:41;;;;;;;15.40;11.75;;;;;;;12.52;100.00;99563.19;4945455;28;20048;-90
2022/10/25 06:38:07;;;;;;;15.13;11.63;;;;;;;12.84;100.00;99567.44;4974968;28;20125;-90
2022/10/25 06:40:34;;;;;;;19.02;12.02;;;;;;;13.41;100.00;99567.63;4974817;28;20030;-90
2022/10/25 06:42:59;;;;;;;16.10;10.98;;;;;;;14.72;100.00;99569.06;4974727;28;20524;-91
2022/10/25 06:45:25;;;;;;;17.60;11.68;;;;;;;15.95;100.00;99560.81;4974479;28;20038;-90
2022/10/25 06:47:50;;;;;;;21.73;13.13;;;;;;;16.22;99.22;99565.91;4975044;28;20489;-90
2022/10/25 06:50:17;;;;;;;20.15;13.07;;;;;;;16.15;98.19;99565.50;4974596;28;20500;-91
2022/10/25 06:52:42;;;;;;;20.63;13.85;;;;;;;16.67;97.19;99574.06;4974790;28;20109;-90
2022/10/25 06:55:07;;;;;;;24.38;14.52;;;;;;;17.81;91.76;99572.50;4974690;28;20057;-90
2022/10/25 06:57:33;;;;;;;23.38;13.00;;;;;;;18.01;88.96;99570.13;4974588;28;20026;-91
2022/10/25 06:59:59;;;;;;;29.73;16.40;;;;;;;17.36;89.40;99575.06;4974620;28;20066;-90
2022/10/25 07:02:25;;;;;;;26.15;12.82;;;;;;;16.56;91.75;99581.88;4974438;28;20022;-91
2022/10/25 07:04:51;;;;;;;17.10;10.90;;;;;;;15.88;93.87;99584.03;4974917;28;20034;-90
2022/10/25 07:07:16;;;;;;;22.42;11.25;;;;;;;15.46;95.95;99578.16;4974724;28;20117;-90
2022/10/25 07:09:41;;;;;;;16.70;11.18;;;;;;;15.23;98.05;99581.47;4992288;28;20022;-90
2022/10/25 07:12:07;;;;;;;18.60;10.75;;;;;;;14.89;99.05;99573.22;4977570;28;20023;-90
2022/10/25 07:14:32;;;;;;;13.98;9.50;;;;;;;14.80;100.00;99586.94;4978172;28;20538;-90
2022/10/25 07:16:58;;;;;;;14.18;10.40;;;;;;;14.64;100.00;99587.06;4978439;28;20405;-90
2022/10/25 07:19:23;;;;;;;16.70;10.77;;;;;;;14.40;100.00;99586.81;4993389;28;20447;-90
2022/10/25 07:21:50;;;;;;;13.48;9.93;;;;;;;14.34;100.00;99594.25;4964153;28;20108;-90
2022/10/25 07:24:15;;;;;;;12.80;8.63;;;;;;;14.31;100.00;99589.19;4981094;28;20128;-89
2022/10/25 07:26:41;;;;;;;11.57;7.90;;;;;;;14.30;100.00;99598.84;4967098;28;20074;-84
2022/10/25 07:29:06;;;;;;;12.13;7.70;;;;;;;14.22;100.00;99588.00;4976391;28;20033;-86
2022/10/25 07:31:37;;;;;;;10.68;6.93;;;;;;;14.37;100.00;99602.75;4976420;28;20054;-86
2022/10/25 07:34:04;;;;;;;10.95;7.78;;;;;;;14.42;100.00;99589.38;4976341;28;20092;-85
2022/10/25 07:36:29;;;;;;;9.05;7.50;;;;;;;14.57;100.00;99596.25;4958752;28;20026;-86
2022/10/25 07:38:55;;;;;;;9.40;7.32;;;;;;;14.71;100.00;99596.22;4958549;28;20117;-87
2022/10/25 07:41:22;;;;;;;10.25;6.75;;;;;;;14.77;100.00;99602.00;4975648;28;20031;-86
2022/10/25 07:43:47;;;;;;;10.77;6.35;;;;;;;14.75;100.00;99593.38;4975700;28;20039;-86
2022/10/25 07:46:12;;;;;;;13.18;6.15;;;;;;;14.91;100.00;99609.81;4974681;28;20023;-86
2022/10/25 07:48:38;;;;;;;8.55;6.70;;;;;;;15.12;100.00;99600.53;4975735;28;20026;-86
2022/10/25 07:51:05;;;;;;;10.77;5.82;;;;;;;15.24;100.00;99593.63;4954992;29;20435;-88
2022/10/25 07:53:31;;;;;;;12.32;5.45;;;;;;;15.32;100.00;99607.09;4956241;29;20023;-86
2022/10/25 07:55:56;;;;;;;7.18;5.43;;;;;;;15.15;100.00;99607.38;4956424;29;20089;-86
2022/10/25 07:58:22;;;;;;;11.07;5.53;;;;;;;15.10;100.00;99609.47;4954676;29;20110;-86
2022/10/25 08:00:47;;;;;;;7.97;5.75;;;;;;;15.11;100.00;99606.72;4955092;29;20023;-86
2022/10/25 08:03:14;;;;;;;7.57;5.15;;;;;;;15.30;100.00;99603.75;4956494;29;20038;-86
2022/10/25 08:05:42;;;;;;;10.23;5.07;;;;;;;15.50;100.00;99591.88;4956118;29;20031;-86
2022/10/25 08:08:07;;;;;;;11.15;5.32;;;;;;;15.48;100.00;99602.50;4956564;29;20054;-86
2022/10/25 08:10:33;;;;;;;8.38;5.15;;;;;;;15.70;100.00;99606.31;4938659;29;20054;-86
2022/10/25 08:12:58;;;;;;;8.70;5.45;;;;;;;15.93;100.00;99602.13;4956062;29;20078;-86
2022/10/25 08:15:23;;;;;;;9.13;5.28;;;;;;;15.93;100.00;99592.44;4956161;29;20045;-86
2022/10/25 08:17:56;;;;;;;8.35;4.68;;;;;;;15.89;100.00;99590.97;4954779;29;20497;-86
2022/10/25 08:20:22;;;;;;;7.63;4.70;;;;;;;15.87;100.00;99606.00;4955926;29;20078;-86
2022/10/25 08:22:47;;;;;;;7.28;4.88;;;;;;;15.87;100.00;99611.25;4954469;28;20023;-90
2022/10/25 08:25:13;;;;;;;6.60;4.97;;;;;;;15.78;100.00;99596.13;4938636;29;20027;-86
2022/10/25 08:27:40;;;;;;;7.90;4.72;;;;;;;15.81;100.00;99610.84;4955565;29;20030;-88
2022/10/25 08:30:06;;;;;;;5.90;4.32;;;;;;;16.02;100.00;99606.72;4954719;29;20031;-86
2022/10/25 08:32:33;;;;;;;7.78;4.43;;;;;;;16.17;100.00;99605.63;4955579;29;20023;-86
2022/10/25 08:34:58;;;;;;;5.45;4.32;;;;;;;16.16;100.00;99603.13;4955779;29;20029;-86
2022/10/25 08:37:24;;;;;;;6.65;4.38;;;;;;;16.15;100.00;99599.66;4955494;29;20023;-86
2022/10/25 08:39:49;;;;;;;6.35;4.22;;;;;;;16.13;99.95;99609.44;4955451;29;20038;-86
2022/10/25 08:42:37;;;;;;;6.82;4.07;;;;;;;16.01;99.94;99607.66;4954501;29;20022;-86
2022/10/25 08:45:21;;;;;;;8.45;4.70;;;;;;;15.95;100.00;99611.56;4954294;29;20023;-86
2022/10/25 08:47:51;;;;;;;6.57;4.50;;;;;;;15.89;100.00;99598.88;4948086;29;20030;-86
2022/10/25 08:50:37;;;;;;;7.40;4.05;;;;;;;15.85;100.00;99600.03;4944794;29;20179;-86
2022/10/25 08:53:07;;;;;;;10.07;5.03;;;;;;;15.92;100.00;99605.66;4955833;29;20023;-86
2022/10/25 08:55:41;;;;;;;5.88;4.10;;;;;;;15.98;100.00;99615.78;4954200;29;20034;-86
2022/10/25 08:58:14;;;;;;;5.97;3.80;;;;;;;15.95;100.00;99606.31;4954051;29;20062;-86
2022/10/25 09:00:42;;;;;;;7.68;4.00;;;;;;;15.99;100.00;99609.56;4955027;29;20383;-86
2022/10/25 09:03:24;;;;;;;8.30;4.30;;;;;;;16.05;100.00;99611.75;4938190;29;20034;-86
2022/10/25 09:06:19;;;;;;;7.05;3.95;;;;;;;16.12;100.00;99620.88;4955162;29;20448;-86
2022/10/25 09:08:47;;;;;;;8.95;4.45;;;;;;;16.21;100.00;99619.41;4937757;29;20101;-86
2022/10/25 09:11:36;;;;;;;9.30;4.35;;;;;;;16.27;100.00;99613.72;4955046;29;20490;-86
2022/10/25 09:14:46;;;;;;;6.05;4.05;;;;;;;16.30;100.00;99616.13;4955236;29;20019;-86
2022/10/25 09:17:26;;;;;;;8.00;3.65;;;;;;;16.26;99.49;99606.78;4895525;29;20067;-86
2022/10/25 09:19:57;;;;;;;10.73;4.00;;;;;;;16.31;98.96;99614.38;4895523;29;20028;-86
2022/10/25 09:22:28;;;;;;;8.88;4.03;;;;;;;16.24;98.54;99605.22;4895541;29;20093;-86
2022/10/25 09:25:00;;;;;;;4.45;3.15;;;;;;;16.32;97.94;99614.25;4895322;29;20029;-86
2022/10/25 09:27:38;;;;;;;6.85;3.63;;;;;;;16.36;97.69;99620.13;4895041;29;20089;-86
2022/10/25 09:30:08;;;;;;;7.85;3.10;;;;;;;16.35;97.50;99621.06;4895358;29;20040;-86
2022/10/25 09:32:37;;;;;;;5.28;3.15;;;;;;;16.36;97.48;99617.50;4895160;29;20080;-86
2022/10/25 09:35:04;;;;;;;4.30;3.20;;;;;;;16.36;97.79;99628.00;4894679;29;20036;-86
2022/10/25 09:37:38;;;;;;;6.97;3.00;;;;;;;16.33;97.19;99631.69;4894997;29;20047;-86
2022/10/25 09:40:10;;;;;;;7.35;3.35;;;;;;;16.33;96.78;99630.84;4879343;29;20040;-86
2022/10/25 09:42:40;;;;;;;11.90;3.75;;;;;;;16.25;96.73;99610.34;4894912;29;20037;-86
2022/10/25 09:45:32;;;;;;;6.60;2.70;;;;;;;16.34;97.11;99630.72;4895426;29;20131;-86
2022/10/25 09:48:00;;;;;;;6.00;3.55;;;;;;;16.34;97.37;99630.72;4876223;29;20033;-87
2022/10/25 09:50:47;;;;;;;8.27;3.47;;;;;;;16.38;97.93;99629.56;4875835;29;20101;-86
2022/10/25 09:53:15;;;;;;;5.13;3.00;;;;;;;16.42;97.79;99625.78;4885621;29;20039;-86
2022/10/25 09:55:41;;;;;;;6.22;2.97;;;;;;;16.50;97.07;99627.84;4913594;29;20040;-86
2022/10/25 09:58:33;;;;;;;8.35;3.05;;;;;;;16.45;95.95;99630.81;4913722;29;20039;-85
2022/10/25 10:01:12;;;;;;;6.57;3.10;;;;;;;16.28;95.15;99618.03;4857621;29;20033;-85
2022/10/25 10:03:38;;;;;;;11.43;3.75;;;;;;;16.31;94.88;99627.50;4875862;29;20411;-87
2022/10/25 10:06:17;;;;;;;9.30;3.28;;;;;;;16.25;95.26;99634.00;4876271;29;20057;-87
2022/10/25 10:08:49;;;;;;;5.70;2.75;;;;;;;16.18;95.16;99611.72;4875867;29;20357;-87
2022/10/25 10:11:17;;;;;;;9.73;4.05;;;;;;;16.33;94.53;99625.59;4876043;29;20430;-86
2022/10/25 10:14:01;;;;;;;8.48;3.05;;;;;;;16.42;94.99;99612.63;4875694;29;20111;-86
2022/10/25 10:16:40;;;;;;;6.30;3.38;;;;;;;16.68;94.64;99628.31;4875983;29;20052;-84
2022/10/25 10:19:22;;;;;;;6.25;3.00;;;;;;;16.87;94.43;99630.50;4872564;29;20378;-86
2022/10/25 10:21:50;;;;;;;6.80;2.95;;;;;;;17.00;93.74;99627.81;4857311;29;20038;-87
2022/10/25 10:24:25;;;;;;;7.63;3.22;;;;;;;17.00;92.21;99620.75;4841777;29;20588;-86
2022/10/25 10:26:56;;;;;;;6.88;2.97;;;;;;;17.01;91.14;99622.44;4857184;29;20112;-85
2022/10/25 10:29:23;;;;;;;7.25;2.83;;;;;;;16.89;91.81;99628.59;4865750;29;20122;-86
2022/10/25 10:31:52;;;;;;;6.13;2.92;;;;;;;16.77;91.84;99625.09;4860078;29;20059;-85
2022/10/25 10:34:31;;;;;;;7.25;3.13;;;;;;;16.82;92.08;99635.25;4875930;29;20080;-85
2022/10/25 10:37:12;;;;;;;7.38;2.90;;;;;;;16.70;91.81;99623.81;4888496;29;20141;-86
2022/10/25 10:39:55;;;;;;;7.57;3.50;;;;;;;16.75;91.39;99631.38;4953644;29;20023;-86
2022/10/25 10:42:23;;;;;;;5.72;3.20;;;;;;;16.67;91.46;99632.75;4953912;29;20425;-86
2022/10/25 10:45:02;;;;;;;7.10;3.13;;;;;;;16.68;91.67;99644.94;4936240;29;20019;-86
2022/10/25 10:47:33;;;;;;;5.32;2.92;;;;;;;16.56;91.98;99627.44;4957358;29;20082;-86
2022/10/25 10:50:00;;;;;;;6.15;3.15;;;;;;;16.57;92.07;99634.38;4973048;28;20053;-88
2022/10/25 10:52:31;;;;;;;8.00;2.80;;;;;;;16.56;92.17;99640.59;4976512;28;20027;-86
2022/10/25 10:54:57;;;;;;;;;;;;;;;16.61;92.60;99637.63;4997010;28;20036;-86
2022/10/25 10:57:34;;;;;;;6.95;3.17;;;;;;;16.68;92.21;99641.47;4996318;28;19910;-88
2022/10/25 11:00:01;;;;;;;7.82;3.50;;;;;;;16.77;91.34;99640.00;4975622;28;20033;-86
2022/10/25 11:02:39;;;;;;;4.93;2.45;;;;;;;16.73;91.44;99643.78;4993926;28;20018;-87
2022/10/25 11:05:20;;;;;;;6.80;3.33;;;;;;;16.74;91.32;99638.44;4996285;28;20088;-86
2022/10/25 11:07:51;;;;;;;;;;;;;;;16.70;91.13;99640.41;4996229;28;20026;-86
2022/10/25 11:10:19;;;;;;;5.60;3.15;;;;;;;16.67;90.98;99635.38;4996274;28;20023;-86
2022/10/25 11:12:44;;;;;;;4.53;2.63;;;;;;;16.87;90.77;99628.72;4996202;28;20362;-87
2022/10/25 11:15:13;;;;;;;6.47;3.45;;;;;;;17.02;90.08;99641.69;4975224;28;20027;-87
2022/10/25 11:17:49;;;;;;;5.55;3.08;;;;;;;17.06;89.56;99636.06;4995079;28;20102;-85
2022/10/25 11:20:33;;;;;;;6.30;3.42;;;;;;;17.16;89.29;99637.09;4995926;28;20026;-85
2022/10/25 11:23:15;;;;;;;8.00;3.65;;;;;;;17.26;89.75;99634.59;4996119;28;20076;-87
2022/10/25 11:25:55;;;;;;;5.22;2.75;;;;;;;17.42;89.73;99629.03;4995697;28;20022;-87
2022/10/25 11:28:39;;;;;;;6.63;3.30;;;;;;;17.57;89.24;99637.56;4995814;28;20026;-87
2022/10/25 11:31:32;;;;;;;7.50;3.00;;;;;;;17.70;88.17;99633.06;4978381;28;20026;-86